createdAt,value
2023-06-25T00:00:45.539Z,45.92
2023-06-25T00:03:13.317Z,45.79
2023-06-25T00:05:39.827Z,46.38
2023-06-25T00:08:06.288Z,46.38
2023-06-25T00:10:32.661Z,46.79
2023-06-25T00:12:59.130Z,47.05
2023-06-25T00:15:25.572Z,47.48
2023-06-25T00:17:51.968Z,47.08
2023-06-25T00:20:18.691Z,47.88
2023-06-25T00:23:04.843Z,47.86
2023-06-25T00:25:32.274Z,48.39
2023-06-25T00:28:00.094Z,48.44
2023-06-25T00:30:26.488Z,47.81
2023-06-25T00:32:55.648Z,47.91
2023-06-25T00:35:25.836Z,47.64
2023-06-25T00:37:57.972Z,47.51
2023-06-25T00:40:24.900Z,47.33
2023-06-25T00:42:57.775Z,47.40
2023-06-25T00:45:27.387Z,47.38
2023-06-25T00:47:55.161Z,47.62
2023-06-25T00:50:22.860Z,47.32
2023-06-25T00:52:50.230Z,47.03
2023-06-25T00:55:17.066Z,47.04
2023-06-25T00:57:43.853Z,46.73
2023-06-25T01:00:15.722Z,47.35
2023-06-25T01:02:47.393Z,46.82
2023-06-25T01:05:20.801Z,47.26
2023-06-25T01:07:48.806Z,46.91
2023-06-25T01:10:15.252Z,47.18
2023-06-25T01:12:43.763Z,47.26
2023-06-25T01:15:10.706Z,47.69
2023-06-25T01:17:38.683Z,47.66
2023-06-25T01:20:06.879Z,47.80
2023-06-25T01:22:33.848Z,48.27
2023-06-25T01:25:00.958Z,47.94
2023-06-25T01:27:27.611Z,47.78
2023-06-25T01:29:55.237Z,47.97
2023-06-25T01:32:23.570Z,47.91
2023-06-25T01:34:49.961Z,47.90
2023-06-25T01:37:18.815Z,47.94
2023-06-25T01:39:50.552Z,47.41
2023-06-25T01:42:16.942Z,48.44
2023-06-25T01:44:43.506Z,48.32
2023-06-25T01:47:10.217Z,48.79
2023-06-25T01:49:36.636Z,48.89
2023-06-25T01:52:03.707Z,49.04
2023-06-25T01:54:30.449Z,48.28
2023-06-25T01:56:57.734Z,49.79
2023-06-25T01:59:24.108Z,49.73
2023-06-25T02:01:50.589Z,50.32
2023-06-25T02:04:17.108Z,50.65
2023-06-25T02:06:43.788Z,50.75
2023-06-25T02:09:10.347Z,50.56
2023-06-25T02:11:36.766Z,50.60
2023-06-25T02:14:05.095Z,50.49
2023-06-25T02:16:31.761Z,50.56
2023-06-25T02:18:58.369Z,50.45
2023-06-25T02:21:24.777Z,50.82
2023-06-25T02:23:51.281Z,50.95
2023-06-25T02:26:17.666Z,50.99
2023-06-25T02:28:44.087Z,50.80
2023-06-25T02:31:10.485Z,51.41
2023-06-25T02:33:36.947Z,51.28
2023-06-25T02:36:03.595Z,51.33
2023-06-25T02:38:29.973Z,51.98
2023-06-25T02:40:56.397Z,52.29
2023-06-25T02:43:22.828Z,52.16
2023-06-25T02:45:49.371Z,52.17
2023-06-25T02:48:17.859Z,51.98
2023-06-25T02:50:44.479Z,51.70
2023-06-25T02:53:10.891Z,51.72
2023-06-25T02:55:37.765Z,52.13
2023-06-25T02:58:04.456Z,52.08
2023-06-25T03:00:31.035Z,52.21
2023-06-25T03:02:57.639Z,52.15
2023-06-25T03:05:24.168Z,52.19
2023-06-25T03:07:56.662Z,52.48
2023-06-25T03:10:25.494Z,52.10
2023-06-25T03:12:51.884Z,53.14
2023-06-25T03:15:21.241Z,53.08
2023-06-25T03:17:47.752Z,53.20
2023-06-25T03:20:14.597Z,53.29
2023-06-25T03:22:41.586Z,53.29
2023-06-25T03:25:08.882Z,53.19
2023-06-25T03:27:35.512Z,52.97
2023-06-25T03:30:02.462Z,53.28
2023-06-25T03:32:28.944Z,53.01
2023-06-25T03:34:56.474Z,53.55
2023-06-25T03:37:24.103Z,53.78
2023-06-25T03:39:50.669Z,53.78
2023-06-25T03:42:17.305Z,53.51
2023-06-25T03:44:49.717Z,53.06
2023-06-25T03:47:16.139Z,52.27
2023-06-25T03:49:44.218Z,52.02
2023-06-25T03:52:10.626Z,52.68
2023-06-25T03:54:37.013Z,52.56
2023-06-25T03:57:03.877Z,52.67
2023-06-25T03:59:30.428Z,52.51
2023-06-25T04:01:56.894Z,52.52
2023-06-25T04:04:23.361Z,53.44
2023-06-25T04:06:49.912Z,53.05
2023-06-25T04:09:16.526Z,53.02
2023-06-25T04:11:43.070Z,53.08
2023-06-25T04:14:09.435Z,53.37
2023-06-25T04:16:37.418Z,53.77
2023-06-25T04:19:03.854Z,53.67
2023-06-25T04:21:30.223Z,53.58
2023-06-25T04:23:56.579Z,53.85
2023-06-25T04:26:22.936Z,54.16
2023-06-25T04:28:49.313Z,54.75
2023-06-25T04:31:15.702Z,54.48
2023-06-25T04:33:42.966Z,54.85
2023-06-25T04:36:11.257Z,54.55
2023-06-25T04:38:37.630Z,55.10
2023-06-25T04:41:04.048Z,55.75
2023-06-25T04:43:30.416Z,55.54
2023-06-25T04:45:56.843Z,56.06
2023-06-25T04:48:23.270Z,55.98
2023-06-25T04:50:49.948Z,56.10
2023-06-25T04:53:16.374Z,55.44
2023-06-25T04:55:43.005Z,55.49
2023-06-25T04:58:09.399Z,56.09
2023-06-25T05:00:35.773Z,56.05
2023-06-25T05:03:02.372Z,55.50
2023-06-25T05:05:28.820Z,55.08
2023-06-25T05:07:55.196Z,55.41
2023-06-25T05:10:22.727Z,55.62
2023-06-25T05:12:49.189Z,55.49
2023-06-25T05:15:16.152Z,55.07
2023-06-25T05:17:42.582Z,55.23
2023-06-25T05:20:09.666Z,54.97
2023-06-25T05:22:36.125Z,54.88
2023-06-25T05:25:02.809Z,53.95
2023-06-25T05:27:30.324Z,54.05
2023-06-25T05:29:56.724Z,53.52
2023-06-25T05:32:23.131Z,52.64
2023-06-25T05:34:49.558Z,52.43
2023-06-25T05:37:15.958Z,51.73
2023-06-25T05:39:42.315Z,51.63
2023-06-25T05:42:08.726Z,51.37
2023-06-25T05:44:35.103Z,51.45
2023-06-25T05:47:01.487Z,51.23
2023-06-25T05:49:27.916Z,50.98
2023-06-25T05:51:54.269Z,50.90
2023-06-25T05:54:20.622Z,50.45
2023-06-25T05:56:47.171Z,50.69
2023-06-25T05:59:13.564Z,50.54
2023-06-25T06:01:39.955Z,50.18
2023-06-25T06:04:07.094Z,50.33
2023-06-25T06:06:33.502Z,50.03
2023-06-25T06:08:59.976Z,49.07
2023-06-25T06:11:28.847Z,48.04
2023-06-25T06:13:57.458Z,48.27
2023-06-25T06:16:24.338Z,48.29
2023-06-25T06:18:50.757Z,47.89
2023-06-25T06:21:17.117Z,47.92
2023-06-25T06:23:43.506Z,47.52
2023-06-25T06:26:09.865Z,48.28
2023-06-25T06:28:36.237Z,48.05
2023-06-25T06:31:02.667Z,48.22
2023-06-25T06:33:29.040Z,47.94
2023-06-25T06:35:55.468Z,48.42
2023-06-25T06:38:21.835Z,48.19
2023-06-25T06:40:48.305Z,48.18
2023-06-25T06:43:14.696Z,47.11
2023-06-25T06:45:41.076Z,47.89
2023-06-25T06:48:07.915Z,48.02
2023-06-25T06:50:34.361Z,48.08
2023-06-25T06:53:00.782Z,48.32
2023-06-25T06:55:27.165Z,48.12
2023-06-25T06:57:53.517Z,47.89
2023-06-25T07:00:20.406Z,47.60
2023-06-25T07:02:46.859Z,48.07
2023-06-25T07:05:13.966Z,47.91
2023-06-25T07:07:41.884Z,47.95
2023-06-25T07:10:08.942Z,47.92
2023-06-25T07:12:35.320Z,48.36
2023-06-25T07:15:01.847Z,47.71
2023-06-25T07:17:28.380Z,47.58
2023-06-25T07:19:54.785Z,47.35
2023-06-25T07:22:21.155Z,47.30
2023-06-25T07:24:47.556Z,47.42
2023-06-25T07:27:14.016Z,47.83
2023-06-25T07:29:40.494Z,47.68
2023-06-25T07:32:08.612Z,47.87
2023-06-25T07:34:35.535Z,47.61
2023-06-25T07:37:01.908Z,47.50
2023-06-25T07:39:34.156Z,47.29
2023-06-25T07:42:01.217Z,46.86
2023-06-25T07:46:57.148Z,47.33
2023-06-25T07:49:23.539Z,47.21
2023-06-25T07:51:52.206Z,47.45
2023-06-25T07:54:18.859Z,47.54
2023-06-25T07:56:45.616Z,48.80
2023-06-25T07:59:16.143Z,49.52
2023-06-25T08:01:42.959Z,48.69
2023-06-25T08:04:09.730Z,47.96
2023-06-25T08:06:36.285Z,48.16
2023-06-25T08:09:02.975Z,46.98
2023-06-25T08:11:29.682Z,46.80
2023-06-25T08:13:56.053Z,47.68
2023-06-25T08:16:23.883Z,47.46
2023-06-25T08:18:50.816Z,47.23
2023-06-25T08:21:17.301Z,47.42
2023-06-25T08:23:43.747Z,47.51
2023-06-25T08:26:13.759Z,47.32
2023-06-25T08:28:40.701Z,47.53
2023-06-25T08:31:07.187Z,46.98
2023-06-25T08:33:35.356Z,47.44
2023-06-25T08:36:01.719Z,46.65
2023-06-25T08:38:28.230Z,46.90
2023-06-25T08:40:55.774Z,46.60
2023-06-25T08:43:22.490Z,46.41
2023-06-25T08:45:48.928Z,46.37
2023-06-25T08:48:15.370Z,46.18
2023-06-25T08:50:43.834Z,45.40
2023-06-25T08:53:10.725Z,45.53
2023-06-25T08:55:38.691Z,44.91
2023-06-25T08:58:05.628Z,44.56
2023-06-25T09:00:32.209Z,45.16
2023-06-25T09:02:58.815Z,45.46
2023-06-25T09:05:27.079Z,44.97
2023-06-25T09:07:54.506Z,44.77
2023-06-25T09:10:21.420Z,44.49
2023-06-25T09:12:51.921Z,44.72
2023-06-25T09:15:23.024Z,44.66
2023-06-25T09:17:50.145Z,44.77
2023-06-25T09:20:16.620Z,44.95
2023-06-25T09:23:09.424Z,44.92
2023-06-25T09:25:35.788Z,44.08
2023-06-25T09:28:04.387Z,44.00
2023-06-25T09:30:30.833Z,44.40
2023-06-25T09:32:57.356Z,44.67
2023-06-25T09:35:26.313Z,44.60
2023-06-25T09:37:53.952Z,44.44
2023-06-25T09:40:20.683Z,43.97
2023-06-25T09:42:49.523Z,44.18
2023-06-25T09:45:17.008Z,44.09
2023-06-25T09:47:46.237Z,44.14
2023-06-25T09:50:20.872Z,43.56
2023-06-25T09:52:58.449Z,43.73
2023-06-25T09:55:29.243Z,44.06
2023-06-25T09:57:57.112Z,43.70
2023-06-25T10:00:25.708Z,43.88
2023-06-25T10:02:53.559Z,43.12
2023-06-25T10:05:20.212Z,42.93
2023-06-25T10:07:47.495Z,42.58
2023-06-25T10:10:43.309Z,42.98
2023-06-25T10:13:10.361Z,42.12
2023-06-25T10:15:37.996Z,41.95
2023-06-25T10:18:07.027Z,41.75
2023-06-25T10:20:38.127Z,41.09
2023-06-25T10:23:04.611Z,41.13
2023-06-25T10:25:31.418Z,41.92
2023-06-25T10:28:11.215Z,41.46
2023-06-25T10:30:46.688Z,40.81
2023-06-25T10:33:17.910Z,40.82
2023-06-25T10:35:49.062Z,41.15
2023-06-25T10:38:16.660Z,41.17
2023-06-25T10:40:43.353Z,40.31
2023-06-25T10:43:10.793Z,39.92
2023-06-25T10:45:37.692Z,39.08
2023-06-25T10:48:12.740Z,39.06
2023-06-25T10:50:39.176Z,39.18
2023-06-25T10:53:11.292Z,39.30
2023-06-25T10:55:39.469Z,39.63
2023-06-25T10:58:06.086Z,39.49
2023-06-25T11:00:32.475Z,38.87
2023-06-25T11:02:59.441Z,38.36
2023-06-25T11:05:39.974Z,38.29
2023-06-25T11:08:08.564Z,38.25
2023-06-25T11:10:37.187Z,38.36
2023-06-25T11:13:03.882Z,38.89
2023-06-25T11:15:34.442Z,38.30
2023-06-25T11:18:01.627Z,37.35
2023-06-25T11:20:30.799Z,37.05
2023-06-25T11:22:59.913Z,37.93
2023-06-25T11:25:26.639Z,38.08
2023-06-25T11:28:05.460Z,37.96
2023-06-25T11:30:31.958Z,38.22
2023-06-25T11:33:16.277Z,38.65
2023-06-25T11:35:43.956Z,38.49
2023-06-25T11:38:10.997Z,38.46
2023-06-25T11:40:39.992Z,38.01
2023-06-25T11:43:09.364Z,38.06
2023-06-25T11:45:44.132Z,37.42
2023-06-25T11:48:17.318Z,37.60
2023-06-25T11:50:45.099Z,37.40
2023-06-25T11:53:11.858Z,36.93
2023-06-25T11:55:39.103Z,36.71
2023-06-25T11:58:05.799Z,36.65
2023-06-25T12:00:32.281Z,36.01
2023-06-25T12:02:58.685Z,36.21
2023-06-25T12:05:25.182Z,35.66
2023-06-25T12:07:51.551Z,35.80
2023-06-25T12:10:18.392Z,35.11
2023-06-25T12:12:46.098Z,34.50
2023-06-25T12:15:12.658Z,34.65
2023-06-25T12:17:39.181Z,34.56
2023-06-25T12:20:05.997Z,34.65
2023-06-25T12:22:33.451Z,34.17
2023-06-25T12:25:00.008Z,33.55
2023-06-25T12:27:26.372Z,34.09
2023-06-25T12:29:52.736Z,34.27
2023-06-25T12:32:19.120Z,33.82
2023-06-25T12:34:45.507Z,34.06
2023-06-25T12:37:11.871Z,34.76
2023-06-25T12:39:38.248Z,33.72
2023-06-25T12:42:04.960Z,33.77
2023-06-25T12:44:32.102Z,32.52
2023-06-25T12:46:58.500Z,33.39
2023-06-25T12:49:24.880Z,32.90
2023-06-25T12:51:52.482Z,33.06
2023-06-25T12:54:19.338Z,33.28
2023-06-25T12:56:46.221Z,33.90
2023-06-25T12:59:12.701Z,32.99
2023-06-25T13:01:39.098Z,33.09
2023-06-25T13:04:05.938Z,32.57
2023-06-25T13:06:32.416Z,32.53
2023-06-25T13:08:58.786Z,32.67
2023-06-25T13:11:25.170Z,32.59
2023-06-25T13:13:51.519Z,32.77
2023-06-25T13:16:17.880Z,33.30
2023-06-25T13:18:44.330Z,32.72
2023-06-25T13:21:10.702Z,33.06
2023-06-25T13:23:38.224Z,32.46
2023-06-25T13:26:04.718Z,32.03
2023-06-25T13:28:31.112Z,31.79
2023-06-25T13:30:57.707Z,31.87
2023-06-25T13:33:24.139Z,31.27
2023-06-25T13:35:50.502Z,31.19
2023-06-25T13:38:16.981Z,31.04
2023-06-25T13:40:43.362Z,30.89
2023-06-25T13:43:09.835Z,30.84
2023-06-25T13:45:36.345Z,30.90
2023-06-25T13:48:02.911Z,30.43
2023-06-25T13:50:29.314Z,30.33
2023-06-25T13:52:55.705Z,30.45
2023-06-25T13:55:22.136Z,30.35
2023-06-25T13:57:48.556Z,30.13
2023-06-25T14:00:15.246Z,29.43
2023-06-25T14:05:13.397Z,28.93
2023-06-25T14:07:39.877Z,28.77
2023-06-25T14:10:07.265Z,28.06
2023-06-25T14:12:33.775Z,28.52
2023-06-25T14:15:00.953Z,27.66
2023-06-25T14:17:27.333Z,27.89
2023-06-25T14:19:53.772Z,27.58
2023-06-25T14:22:20.121Z,27.43
2023-06-25T14:24:46.476Z,28.02
2023-06-25T14:27:12.829Z,28.23
2023-06-25T14:29:39.177Z,27.77
2023-06-25T14:32:05.794Z,28.37
2023-06-25T14:34:32.220Z,27.63
2023-06-25T14:36:59.731Z,28.01
2023-06-25T14:39:26.100Z,27.27
2023-06-25T14:41:52.467Z,26.88
2023-06-25T14:44:19.115Z,26.28
2023-06-25T14:46:45.462Z,26.48
2023-06-25T14:49:11.815Z,25.78
2023-06-25T14:51:38.218Z,25.71
2023-06-25T14:54:04.585Z,24.47
2023-06-25T14:56:30.968Z,25.40
2023-06-25T14:58:57.373Z,25.69
2023-06-25T15:01:23.808Z,25.73
2023-06-25T15:03:50.295Z,25.82
2023-06-25T15:06:31.174Z,26.12
2023-06-25T15:09:01.822Z,25.04
2023-06-25T15:11:28.187Z,24.74
2023-06-25T15:13:56.310Z,24.25
2023-06-25T15:16:22.758Z,24.77
2023-06-25T15:18:49.130Z,24.44
2023-06-25T15:21:15.524Z,24.90
2023-06-25T15:23:43.319Z,23.81
2023-06-25T15:26:10.336Z,24.33
2023-06-25T15:28:36.695Z,24.17
2023-06-25T15:31:03.067Z,24.28
2023-06-25T15:33:29.484Z,24.07
2023-06-25T15:35:55.861Z,24.62
2023-06-25T15:38:22.316Z,23.99
2023-06-25T15:40:48.697Z,23.65
2023-06-25T15:43:15.778Z,23.79
2023-06-25T15:45:42.296Z,24.56
2023-06-25T15:48:08.821Z,26.64
2023-06-25T15:50:39.979Z,25.32
2023-06-25T15:53:06.553Z,27.06
2023-06-25T15:55:32.904Z,24.65
2023-06-25T15:58:00.258Z,25.33
2023-06-25T16:00:26.757Z,26.54
2023-06-25T16:02:53.304Z,24.85
2023-06-25T16:05:19.733Z,24.72
2023-06-25T16:07:46.404Z,25.55
2023-06-25T16:10:12.833Z,25.66
2023-06-25T16:12:40.421Z,25.42
2023-06-25T16:15:07.666Z,25.19
2023-06-25T16:17:34.067Z,26.16
2023-06-25T16:20:10.850Z,25.34
2023-06-25T16:22:39.069Z,25.85
2023-06-25T16:25:05.817Z,25.49
2023-06-25T16:27:32.232Z,25.50
2023-06-25T16:29:59.458Z,25.52
2023-06-25T16:32:25.821Z,25.46
2023-06-25T16:34:52.189Z,25.46
2023-06-25T16:37:18.950Z,25.34
2023-06-25T16:39:45.353Z,25.18
2023-06-25T16:42:11.721Z,25.14
2023-06-25T16:44:38.116Z,25.16
2023-06-25T16:47:06.252Z,24.93
2023-06-25T16:49:32.691Z,24.74
2023-06-25T16:51:59.108Z,24.66
2023-06-25T16:54:25.550Z,24.54
2023-06-25T16:56:51.932Z,24.42
2023-06-25T16:59:18.624Z,24.65
2023-06-25T17:01:47.201Z,24.74
2023-06-25T17:04:13.662Z,24.91
2023-06-25T17:06:40.139Z,24.34
2023-06-25T17:09:06.522Z,24.61
2023-06-25T17:11:32.899Z,24.50
2023-06-25T17:13:59.298Z,24.54
2023-06-25T17:16:25.728Z,24.84
2023-06-25T17:18:52.164Z,25.35
2023-06-25T17:21:18.562Z,25.22
2023-06-25T17:23:44.927Z,25.34
2023-06-25T17:26:11.369Z,25.46
2023-06-25T17:28:37.752Z,25.00
2023-06-25T17:31:04.126Z,24.96
2023-06-25T17:33:30.475Z,25.17
2023-06-25T17:35:56.856Z,25.16
2023-06-25T17:38:23.245Z,25.70
2023-06-25T17:40:49.659Z,25.90
2023-06-25T17:43:16.124Z,25.88
2023-06-25T17:45:42.492Z,25.09
2023-06-25T17:48:08.951Z,26.29
2023-06-25T17:50:35.401Z,26.16
2023-06-25T17:53:01.819Z,26.22
2023-06-25T17:55:28.189Z,26.52
2023-06-25T17:57:54.576Z,26.64
2023-06-25T18:00:22.197Z,26.90
2023-06-25T18:02:48.722Z,27.32
2023-06-25T18:05:15.380Z,27.43
2023-06-25T18:07:41.756Z,27.82
2023-06-25T18:10:09.784Z,28.32
2023-06-25T18:12:39.435Z,28.30
2023-06-25T18:15:09.087Z,28.41
2023-06-25T18:17:43.687Z,28.01
2023-06-25T18:20:11.253Z,28.64
2023-06-25T18:22:39.418Z,28.99
2023-06-25T18:25:06.177Z,30.05
2023-06-25T18:27:32.556Z,30.23
2023-06-25T18:29:58.923Z,29.97
2023-06-25T18:32:25.311Z,30.57
2023-06-25T18:34:51.702Z,30.95
2023-06-25T18:37:18.080Z,30.59
2023-06-25T18:39:44.454Z,31.22
2023-06-25T18:42:10.832Z,32.00
2023-06-25T18:44:37.395Z,32.00
2023-06-25T18:47:04.594Z,31.94
2023-06-25T18:49:32.655Z,32.71
2023-06-25T18:51:59.037Z,32.50
2023-06-25T18:54:25.700Z,33.01
2023-06-25T18:56:52.127Z,33.54
2023-06-25T18:59:18.491Z,33.82
2023-06-25T19:01:44.856Z,34.22
2023-06-25T19:04:13.722Z,34.36
2023-06-25T19:06:41.058Z,34.04
2023-06-25T19:09:09.320Z,34.08
2023-06-25T19:11:35.717Z,34.82
2023-06-25T19:14:02.469Z,35.10
2023-06-25T19:16:28.853Z,35.16
2023-06-25T19:18:55.212Z,34.83
2023-06-25T19:21:21.759Z,34.99
2023-06-25T19:23:48.144Z,34.64
2023-06-25T19:26:14.666Z,35.09
2023-06-25T19:28:41.056Z,35.34
2023-06-25T19:31:07.517Z,35.58
2023-06-25T19:33:33.925Z,35.49
2023-06-25T19:36:00.421Z,34.89
2023-06-25T19:38:29.118Z,35.50
2023-06-25T19:40:55.557Z,35.65
2023-06-25T19:43:22.306Z,35.88
2023-06-25T19:45:50.607Z,36.89
2023-06-25T19:48:17.247Z,36.62
2023-06-25T19:50:43.950Z,36.86
2023-06-25T19:53:10.377Z,37.28
2023-06-25T19:55:36.765Z,37.40
2023-06-25T19:58:03.117Z,37.52
2023-06-25T20:00:29.520Z,37.22
2023-06-25T20:02:56.055Z,37.30
2023-06-25T20:05:22.570Z,37.29
2023-06-25T20:07:49.898Z,37.57
2023-06-25T20:10:19.537Z,38.08
2023-06-25T20:12:49.713Z,38.76
2023-06-25T20:15:18.365Z,38.61
2023-06-25T20:17:45.003Z,38.74
2023-06-25T20:20:11.724Z,39.12
2023-06-25T20:22:38.138Z,39.51
2023-06-25T20:25:04.831Z,39.66
2023-06-25T20:27:31.258Z,40.18
2023-06-25T20:30:00.677Z,40.31
2023-06-25T20:32:27.485Z,41.24
2023-06-25T20:34:53.872Z,40.95
2023-06-25T20:37:20.243Z,40.96
2023-06-25T20:39:46.679Z,41.75
2023-06-25T20:42:13.096Z,40.86
2023-06-25T20:44:41.766Z,40.85
2023-06-25T20:47:08.757Z,41.49
2023-06-25T20:49:36.692Z,41.45
2023-06-25T20:52:03.159Z,41.49
2023-06-25T20:54:29.949Z,41.43
2023-06-25T20:56:56.634Z,41.19
2023-06-25T20:59:23.129Z,41.72
2023-06-25T21:01:49.520Z,42.11
2023-06-25T21:04:16.112Z,42.11
2023-06-25T21:06:42.703Z,42.66
2023-06-25T21:09:10.307Z,42.83
2023-06-25T21:11:37.036Z,42.59
2023-06-25T21:14:03.538Z,42.97
2023-06-25T21:16:30.369Z,43.16
2023-06-25T21:18:56.733Z,43.39
2023-06-25T21:21:23.084Z,43.40
2023-06-25T21:23:49.500Z,44.14
2023-06-25T21:26:15.968Z,43.53
2023-06-25T21:28:42.361Z,44.00
2023-06-25T21:31:08.845Z,43.82
2023-06-25T21:33:35.247Z,44.11
2023-06-25T21:36:01.652Z,43.74
2023-06-25T21:38:28.002Z,44.13
2023-06-25T21:40:54.366Z,44.45
2023-06-25T21:43:20.726Z,44.25
2023-06-25T21:45:47.105Z,44.78
2023-06-25T21:48:13.532Z,44.21
2023-06-25T21:50:40.175Z,44.32
2023-06-25T21:53:06.698Z,44.80
2023-06-25T21:55:33.094Z,45.22
2023-06-25T21:57:59.438Z,45.35
2023-06-25T22:00:26.276Z,45.58
2023-06-25T22:02:52.860Z,45.39
2023-06-25T22:05:19.397Z,45.59
2023-06-25T22:07:45.797Z,45.11
2023-06-25T22:10:12.197Z,45.65
2023-06-25T22:12:40.214Z,47.10
2023-06-25T22:15:07.172Z,47.01
2023-06-25T22:17:33.586Z,46.92
2023-06-25T22:19:59.976Z,47.17
2023-06-25T22:22:26.314Z,46.73
2023-06-25T22:24:52.724Z,47.30
2023-06-25T22:27:19.121Z,47.32
2023-06-25T22:29:46.967Z,46.66
2023-06-25T22:32:14.916Z,46.62
2023-06-25T22:34:41.413Z,46.96
2023-06-25T22:37:07.880Z,47.10
2023-06-25T22:39:34.376Z,47.41
2023-06-25T22:42:01.046Z,47.40
2023-06-25T22:44:27.412Z,47.74
2023-06-25T22:46:53.753Z,48.65
2023-06-25T22:49:20.105Z,47.74
2023-06-25T22:51:49.454Z,48.02
2023-06-25T22:54:16.453Z,48.40
2023-06-25T22:56:42.929Z,48.12
2023-06-25T22:59:09.372Z,47.90
2023-06-25T23:01:35.797Z,48.04
2023-06-25T23:04:02.364Z,48.50
2023-06-25T23:06:29.039Z,48.53
2023-06-25T23:08:55.478Z,48.26
2023-06-25T23:11:21.828Z,49.05
2023-06-25T23:13:49.240Z,49.52
2023-06-25T23:16:20.180Z,49.53
2023-06-25T23:18:48.723Z,50.15
2023-06-25T23:21:15.492Z,49.31
2023-06-25T23:23:41.884Z,49.91
2023-06-25T23:26:09.269Z,49.74
2023-06-25T23:28:36.072Z,49.29
2023-06-25T23:31:02.522Z,49.02
2023-06-25T23:33:30.084Z,48.72
2023-06-25T23:35:56.992Z,49.42
2023-06-25T23:38:23.392Z,50.06
2023-06-25T23:40:50.113Z,49.84
2023-06-25T23:43:16.509Z,49.55
2023-06-25T23:45:42.986Z,49.95
2023-06-25T23:48:09.482Z,50.85
2023-06-25T23:50:36.028Z,49.97
2023-06-25T23:53:02.966Z,50.89
2023-06-25T23:55:29.523Z,51.21
2023-06-25T23:57:55.967Z,50.73
